FDX91 KICT-KPHX
Flight info
| Callsign | FDX91 |
|---|---|
| Flight time | 2h 11m |
| Altitude | 32000 |
| Route | VARNR Q176 CIM ZUN EAGUL6 |
| Aircraft | B752/M-SDE2E3FGHIJ3J4J7RWXY/LB1 |
Departure
| Time | 2026-04-26 19:13 |
|---|---|
| Airport | Wichita Dwight D. Eisenhower National Airport (KICT) |
Arrival
| Time | 2026-04-26 21:24 |
|---|---|
| Airport | Phoenix Sky Harbor International Airport (KPHX) |
| Time | Latitude | Longitude | Altitude | Speed | Heading |
|---|---|---|---|---|---|
| 2026-04-26 18:58 | 37.65796 | -97.43232 | 1330 ft | 0 kts | 110° |
| 2026-04-26 19:05 | 37.65797 | -97.43236 | 1329 ft | 2 kts | 110° |
| 2026-04-26 19:06 | 37.65801 | -97.43248 | 1329 ft | 3 kts | 110° |
| 2026-04-26 19:06 | 37.65805 | -97.43276 | 1329 ft | 2 kts | 89° |
| 2026-04-26 19:06 | 37.65801 | -97.43297 | 1329 ft | 2 kts | 47° |
| 2026-04-26 19:06 | 37.65789 | -97.43304 | 1329 ft | 2 kts | 15° |
| 2026-04-26 19:07 | 37.65775 | -97.43308 | 1329 ft | 1 kts | 354° |
| 2026-04-26 19:07 | 37.65769 | -97.43307 | 1329 ft | 0 kts | 13° |
| 2026-04-26 19:07 | 37.65765 | -97.43308 | 1329 ft | 0 kts | 19° |
| 2026-04-26 19:11 | 37.65797 | -97.43295 | 1329 ft | 9 kts | 20° |
| 2026-04-26 19:11 | 37.65851 | -97.43279 | 1329 ft | 5 kts | 352° |
| 2026-04-26 19:11 | 37.65894 | -97.43317 | 1329 ft | 10 kts | 313° |
| 2026-04-26 19:11 | 37.65989 | -97.43320 | 1329 ft | 17 kts | 21° |
| 2026-04-26 19:12 | 37.66065 | -97.43285 | 1330 ft | 6 kts | 11° |
| 2026-04-26 19:12 | 37.66105 | -97.43292 | 1331 ft | 6 kts | 334° |
| 2026-04-26 19:12 | 37.66137 | -97.43363 | 1332 ft | 9 kts | 262° |
| 2026-04-26 19:12 | 37.65986 | -97.43459 | 1332 ft | 56 kts | 198° |
| 2026-04-26 19:13 | 37.65401 | -97.43726 | 1333 ft | 121 kts | 200° |
| 2026-04-26 19:13 | 37.64439 | -97.44170 | 1389 ft | 166 kts | 197° |
| 2026-04-26 19:13 | 37.63354 | -97.44884 | 1907 ft | 192 kts | 221° |
| 2026-04-26 19:13 | 37.62635 | -97.46428 | 2536 ft | 222 kts | 258° |
| 2026-04-26 19:14 | 37.62714 | -97.48424 | 3089 ft | 239 kts | 276° |
| 2026-04-26 19:14 | 37.62725 | -97.50550 | 3538 ft | 253 kts | 261° |
| 2026-04-26 19:14 | 37.62564 | -97.52830 | 4076 ft | 268 kts | 263° |
| 2026-04-26 19:14 | 37.62523 | -97.53617 | 4267 ft | 272 kts | 263° |
| 2026-04-26 19:15 | 37.62336 | -97.57574 | 5659 ft | 275 kts | 263° |
| 2026-04-26 19:15 | 37.62229 | -97.59979 | 6450 ft | 278 kts | 263° |
| 2026-04-26 19:15 | 37.62125 | -97.62393 | 7252 ft | 279 kts | 263° |
| 2026-04-26 19:15 | 37.62022 | -97.64801 | 8042 ft | 280 kts | 264° |
| 2026-04-26 19:16 | 37.61919 | -97.67252 | 8853 ft | 281 kts | 263° |
| 2026-04-26 19:16 | 37.61815 | -97.69699 | 9617 ft | 282 kts | 263° |
| 2026-04-26 19:16 | 37.61711 | -97.72150 | 10318 ft | 285 kts | 264° |
| 2026-04-26 19:16 | 37.61602 | -97.74692 | 10683 ft | 301 kts | 264° |
| 2026-04-26 19:17 | 37.61485 | -97.77417 | 10980 ft | 319 kts | 264° |
| 2026-04-26 19:17 | 37.61361 | -97.80286 | 11207 ft | 337 kts | 264° |
| 2026-04-26 19:17 | 37.61232 | -97.83299 | 11411 ft | 355 kts | 264° |
| 2026-04-26 19:17 | 37.61096 | -97.86456 | 11894 ft | 362 kts | 264° |
| 2026-04-26 19:18 | 37.60961 | -97.89596 | 12672 ft | 361 kts | 264° |
| 2026-04-26 19:18 | 37.60824 | -97.92732 | 13294 ft | 363 kts | 264° |
| 2026-04-26 19:18 | 37.60683 | -97.95918 | 13939 ft | 364 kts | 264° |
| 2026-04-26 19:18 | 37.60542 | -97.99106 | 14484 ft | 368 kts | 265° |
| 2026-04-26 19:19 | 37.60399 | -98.02305 | 15091 ft | 369 kts | 264° |
| 2026-04-26 19:19 | 37.60254 | -98.05544 | 15655 ft | 372 kts | 264° |
| 2026-04-26 19:19 | 37.60107 | -98.08805 | 16228 ft | 374 kts | 264° |
| 2026-04-26 19:19 | 37.59959 | -98.12066 | 16799 ft | 376 kts | 264° |
| 2026-04-26 19:20 | 37.59808 | -98.15350 | 17359 ft | 378 kts | 264° |
| 2026-04-26 19:20 | 37.59707 | -98.17554 | 17719 ft | 379 kts | 264° |
| 2026-04-26 19:20 | 37.59502 | -98.21983 | 18433 ft | 382 kts | 264° |
| 2026-04-26 19:20 | 37.59346 | -98.25324 | 18965 ft | 384 kts | 264° |
| 2026-04-26 19:21 | 37.59189 | -98.28689 | 19490 ft | 386 kts | 264° |
| 2026-04-26 19:21 | 37.59029 | -98.32057 | 19987 ft | 388 kts | 265° |
| 2026-04-26 19:21 | 37.58870 | -98.35407 | 20484 ft | 389 kts | 265° |
| 2026-04-26 19:21 | 37.58684 | -98.38820 | 20940 ft | 391 kts | 262° |
| 2026-04-26 19:22 | 37.58155 | -98.42186 | 21333 ft | 393 kts | 255° |
| 2026-04-26 19:22 | 37.57506 | -98.45520 | 21866 ft | 393 kts | 256° |
| 2026-04-26 19:22 | 37.56859 | -98.48838 | 22246 ft | 396 kts | 256° |
| 2026-04-26 19:22 | 37.56190 | -98.52228 | 22699 ft | 398 kts | 256° |
| 2026-04-26 19:23 | 37.55519 | -98.55609 | 23153 ft | 399 kts | 256° |
| 2026-04-26 19:23 | 37.54844 | -98.58999 | 23619 ft | 400 kts | 255° |
| 2026-04-26 19:23 | 37.54169 | -98.62376 | 23984 ft | 403 kts | 255° |
| 2026-04-26 19:23 | 37.53480 | -98.65813 | 24483 ft | 403 kts | 255° |
| 2026-04-26 19:24 | 37.52793 | -98.69234 | 24868 ft | 406 kts | 255° |
| 2026-04-26 19:24 | 37.52099 | -98.72681 | 25333 ft | 406 kts | 255° |
| 2026-04-26 19:24 | 37.50706 | -98.79580 | 26088 ft | 410 kts | 255° |
| 2026-04-26 19:25 | 37.50015 | -98.82999 | 26566 ft | 409 kts | 255° |
| 2026-04-26 19:25 | 37.49772 | -98.84196 | 26673 ft | 410 kts | 255° |
| 2026-04-26 19:25 | 37.48596 | -98.89992 | 27295 ft | 412 kts | 255° |
| 2026-04-26 19:25 | 37.47883 | -98.93497 | 27602 ft | 414 kts | 255° |
| 2026-04-26 19:26 | 37.47169 | -98.96997 | 27966 ft | 415 kts | 255° |
| 2026-04-26 19:26 | 37.46452 | -99.00513 | 28327 ft | 416 kts | 255° |
| 2026-04-26 19:26 | 37.45736 | -99.04015 | 28641 ft | 417 kts | 255° |
| 2026-04-26 19:26 | 37.45013 | -99.07544 | 28946 ft | 419 kts | 255° |
| 2026-04-26 19:27 | 37.44287 | -99.11086 | 29195 ft | 421 kts | 255° |
| 2026-04-26 19:27 | 37.43559 | -99.14630 | 29682 ft | 418 kts | 255° |
| 2026-04-26 19:27 | 37.42842 | -99.18116 | 30169 ft | 415 kts | 255° |
| 2026-04-26 19:27 | 37.42115 | -99.21645 | 30589 ft | 413 kts | 255° |
| 2026-04-26 19:28 | 37.41402 | -99.25099 | 30997 ft | 411 kts | 255° |
| 2026-04-26 19:28 | 37.40686 | -99.28555 | 31487 ft | 406 kts | 255° |
| 2026-04-26 19:28 | 37.39976 | -99.31991 | 31808 ft | 404 kts | 255° |
| 2026-04-26 19:28 | 37.39269 | -99.35397 | 31799 ft | 404 kts | 255° |
| 2026-04-26 19:29 | 37.37866 | -99.42151 | 31801 ft | 401 kts | 255° |
| 2026-04-26 19:29 | 37.36445 | -99.48964 | 31796 ft | 401 kts | 255° |
| 2026-04-26 19:30 | 37.35038 | -99.55692 | 31793 ft | 401 kts | 255° |
| 2026-04-26 19:30 | 37.33850 | -99.61349 | 31793 ft | 402 kts | 255° |
| 2026-04-26 19:31 | 37.32193 | -99.69228 | 31806 ft | 400 kts | 255° |
| 2026-04-26 19:31 | 37.30776 | -99.75940 | 31805 ft | 400 kts | 255° |
| 2026-04-26 19:32 | 37.29337 | -99.82735 | 31806 ft | 400 kts | 255° |
| 2026-04-26 19:32 | 37.27917 | -99.89420 | 31803 ft | 398 kts | 254° |
| 2026-04-26 19:33 | 37.26488 | -99.96124 | 31806 ft | 398 kts | 255° |
| 2026-04-26 19:33 | 37.25066 | -100.02778 | 31808 ft | 398 kts | 255° |
| 2026-04-26 19:34 | 37.23631 | -100.09476 | 31808 ft | 398 kts | 255° |
| 2026-04-26 19:34 | 37.22189 | -100.16182 | 31807 ft | 398 kts | 254° |
| 2026-04-26 19:35 | 37.20753 | -100.22840 | 31804 ft | 397 kts | 255° |
| 2026-04-26 19:35 | 37.19312 | -100.29501 | 31805 ft | 397 kts | 254° |
| 2026-04-26 19:36 | 37.18349 | -100.33947 | 31803 ft | 398 kts | 254° |
| 2026-04-26 19:36 | 37.16412 | -100.42853 | 31791 ft | 397 kts | 255° |
| 2026-04-26 19:37 | 37.14961 | -100.49502 | 31792 ft | 397 kts | 255° |
| 2026-04-26 19:37 | 37.13499 | -100.56181 | 31786 ft | 397 kts | 254° |
| 2026-04-26 19:38 | 37.12036 | -100.62847 | 31781 ft | 397 kts | 254° |
| 2026-04-26 19:38 | 37.10579 | -100.69465 | 31795 ft | 397 kts | 253° |
| 2026-04-26 19:39 | 37.09108 | -100.76129 | 31790 ft | 396 kts | 253° |
| 2026-04-26 19:39 | 37.07647 | -100.82729 | 31770 ft | 397 kts | 253° |
| 2026-04-26 19:40 | 37.06165 | -100.89403 | 31775 ft | 397 kts | 253° |
| 2026-04-26 19:40 | 37.04686 | -100.96038 | 31753 ft | 396 kts | 253° |
| 2026-04-26 19:41 | 37.03660 | -101.02793 | 31751 ft | 398 kts | 259° |
| 2026-04-26 19:41 | 37.03058 | -101.07313 | 31758 ft | 397 kts | 259° |
| 2026-04-26 19:42 | 37.01847 | -101.16330 | 31778 ft | 393 kts | 259° |
| 2026-04-26 19:42 | 37.00933 | -101.23058 | 31782 ft | 395 kts | 258° |
| 2026-04-26 19:43 | 37.00013 | -101.29778 | 31787 ft | 392 kts | 259° |
| 2026-04-26 19:43 | 36.99092 | -101.36485 | 31781 ft | 393 kts | 259° |
| 2026-04-26 19:44 | 36.98167 | -101.43196 | 31781 ft | 393 kts | 258° |
| 2026-04-26 19:44 | 36.97234 | -101.49918 | 31778 ft | 392 kts | 259° |
| 2026-04-26 19:45 | 36.96298 | -101.56632 | 31786 ft | 392 kts | 259° |
| 2026-04-26 19:45 | 36.95369 | -101.63287 | 31778 ft | 391 kts | 259° |
| 2026-04-26 19:46 | 36.94432 | -101.69954 | 31794 ft | 391 kts | 258° |
| 2026-04-26 19:46 | 36.93488 | -101.76648 | 31795 ft | 390 kts | 258° |
| 2026-04-26 19:47 | 36.92864 | -101.81058 | 31789 ft | 390 kts | 258° |
| 2026-04-26 19:47 | 36.91598 | -101.89964 | 31785 ft | 389 kts | 258° |
| 2026-04-26 19:48 | 36.90655 | -101.96562 | 31782 ft | 388 kts | 258° |
| 2026-04-26 19:48 | 36.89701 | -102.03223 | 31787 ft | 389 kts | 258° |
| 2026-04-26 19:49 | 36.88748 | -102.09843 | 31791 ft | 389 kts | 258° |
| 2026-04-26 19:49 | 36.87788 | -102.16476 | 31803 ft | 388 kts | 258° |
| 2026-04-26 19:50 | 36.86832 | -102.23064 | 31805 ft | 388 kts | 258° |
| 2026-04-26 19:50 | 36.85864 | -102.29708 | 31809 ft | 387 kts | 258° |
| 2026-04-26 19:51 | 36.84896 | -102.36309 | 31803 ft | 387 kts | 258° |
| 2026-04-26 19:51 | 36.83931 | -102.42876 | 31807 ft | 386 kts | 258° |
| 2026-04-26 19:52 | 36.82965 | -102.49432 | 31815 ft | 385 kts | 258° |
| 2026-04-26 19:52 | 36.81989 | -102.56016 | 31820 ft | 387 kts | 258° |
| 2026-04-26 19:53 | 36.81016 | -102.62554 | 31823 ft | 385 kts | 258° |
| 2026-04-26 19:53 | 36.80038 | -102.69109 | 31838 ft | 385 kts | 257° |
| 2026-04-26 19:54 | 36.79052 | -102.75688 | 31842 ft | 385 kts | 257° |
| 2026-04-26 19:54 | 36.78068 | -102.82228 | 31839 ft | 383 kts | 257° |
| 2026-04-26 19:55 | 36.77084 | -102.88739 | 31829 ft | 383 kts | 257° |
| 2026-04-26 19:55 | 36.76099 | -102.95230 | 31840 ft | 383 kts | 257° |
| 2026-04-26 19:56 | 36.75108 | -103.01748 | 31844 ft | 383 kts | 257° |
| 2026-04-26 19:56 | 36.74119 | -103.08221 | 31842 ft | 383 kts | 257° |
| 2026-04-26 19:57 | 36.73218 | -103.14768 | 31852 ft | 384 kts | 258° |
| 2026-04-26 19:57 | 36.72353 | -103.21313 | 31856 ft | 383 kts | 258° |
| 2026-04-26 19:58 | 36.71487 | -103.27833 | 31855 ft | 382 kts | 258° |
| 2026-04-26 19:58 | 36.70619 | -103.34335 | 31853 ft | 382 kts | 258° |
| 2026-04-26 19:59 | 36.69747 | -103.40828 | 31870 ft | 382 kts | 258° |
| 2026-04-26 19:59 | 36.68870 | -103.47350 | 31875 ft | 381 kts | 258° |
| 2026-04-26 20:00 | 36.67995 | -103.53823 | 31882 ft | 381 kts | 258° |
| 2026-04-26 20:00 | 36.67110 | -103.60339 | 31885 ft | 381 kts | 258° |
| 2026-04-26 20:01 | 36.66224 | -103.66835 | 31911 ft | 380 kts | 258° |
| 2026-04-26 20:01 | 36.65343 | -103.73275 | 31911 ft | 380 kts | 258° |
| 2026-04-26 20:02 | 36.64452 | -103.79751 | 31925 ft | 379 kts | 258° |
| 2026-04-26 20:02 | 36.63709 | -103.85130 | 31915 ft | 379 kts | 258° |
| 2026-04-26 20:03 | 36.62667 | -103.92659 | 31919 ft | 379 kts | 257° |
| 2026-04-26 20:03 | 36.61770 | -103.99091 | 31914 ft | 378 kts | 258° |
| 2026-04-26 20:04 | 36.60875 | -104.05497 | 31912 ft | 378 kts | 257° |
| 2026-04-26 20:04 | 36.59971 | -104.11937 | 31913 ft | 377 kts | 257° |
| 2026-04-26 20:05 | 36.59068 | -104.18343 | 31921 ft | 379 kts | 257° |
| 2026-04-26 20:05 | 36.58157 | -104.24784 | 31931 ft | 377 kts | 258° |
| 2026-04-26 20:06 | 36.57247 | -104.31186 | 31924 ft | 376 kts | 257° |
| 2026-04-26 20:06 | 36.56343 | -104.37533 | 31920 ft | 376 kts | 257° |
| 2026-04-26 20:07 | 36.55425 | -104.43935 | 31916 ft | 374 kts | 257° |
| 2026-04-26 20:07 | 36.54510 | -104.50301 | 31915 ft | 375 kts | 257° |
| 2026-04-26 20:08 | 36.53592 | -104.56660 | 31935 ft | 375 kts | 257° |
| 2026-04-26 20:08 | 36.52673 | -104.63001 | 31943 ft | 375 kts | 257° |
| 2026-04-26 20:09 | 36.51741 | -104.69411 | 31960 ft | 374 kts | 257° |
| 2026-04-26 20:09 | 36.50824 | -104.75691 | 31961 ft | 372 kts | 257° |
| 2026-04-26 20:10 | 36.49892 | -104.82051 | 31966 ft | 374 kts | 256° |
| 2026-04-26 20:10 | 36.48694 | -104.88254 | 31977 ft | 369 kts | 248° |
| 2026-04-26 20:11 | 36.46766 | -104.94167 | 31979 ft | 371 kts | 248° |
| 2026-04-26 20:12 | 36.43836 | -105.03055 | 31975 ft | 371 kts | 247° |
| 2026-04-26 20:12 | 36.41874 | -105.08951 | 31967 ft | 371 kts | 248° |
| 2026-04-26 20:13 | 36.39908 | -105.14841 | 31961 ft | 370 kts | 247° |
| 2026-04-26 20:13 | 36.37931 | -105.20738 | 31956 ft | 371 kts | 248° |
| 2026-04-26 20:14 | 36.35944 | -105.26653 | 31959 ft | 373 kts | 248° |
| 2026-04-26 20:14 | 36.33956 | -105.32566 | 31962 ft | 372 kts | 247° |
| 2026-04-26 20:15 | 36.31972 | -105.38443 | 31965 ft | 372 kts | 248° |
| 2026-04-26 20:15 | 36.29978 | -105.44343 | 31966 ft | 369 kts | 247° |
| 2026-04-26 20:16 | 36.27992 | -105.50207 | 31964 ft | 371 kts | 248° |
| 2026-04-26 20:16 | 36.25992 | -105.56103 | 31969 ft | 372 kts | 248° |
| 2026-04-26 20:17 | 36.23993 | -105.61984 | 31954 ft | 370 kts | 247° |
| 2026-04-26 20:17 | 36.21988 | -105.67870 | 31968 ft | 373 kts | 246° |
| 2026-04-26 20:18 | 36.19975 | -105.73763 | 31964 ft | 371 kts | 247° |
| 2026-04-26 20:18 | 36.17965 | -105.79642 | 31961 ft | 374 kts | 247° |
| 2026-04-26 20:19 | 36.15940 | -105.85551 | 31962 ft | 372 kts | 246° |
| 2026-04-26 20:19 | 36.13926 | -105.91419 | 31952 ft | 370 kts | 247° |
| 2026-04-26 20:20 | 36.11908 | -105.97292 | 31937 ft | 372 kts | 246° |
| 2026-04-26 20:20 | 36.09894 | -106.03130 | 31929 ft | 371 kts | 246° |
| 2026-04-26 20:21 | 36.07865 | -106.09006 | 31923 ft | 371 kts | 246° |
| 2026-04-26 20:21 | 36.05847 | -106.14841 | 31933 ft | 370 kts | 246° |
| 2026-04-26 20:22 | 36.03818 | -106.20693 | 31931 ft | 371 kts | 247° |
| 2026-04-26 20:22 | 36.01795 | -106.26520 | 31929 ft | 369 kts | 246° |
| 2026-04-26 20:23 | 35.99768 | -106.32344 | 31945 ft | 372 kts | 247° |
| 2026-04-26 20:23 | 35.97726 | -106.38203 | 31944 ft | 370 kts | 246° |
| 2026-04-26 20:24 | 35.95699 | -106.44007 | 31935 ft | 369 kts | 247° |
| 2026-04-26 20:24 | 35.93675 | -106.49791 | 31935 ft | 371 kts | 246° |
| 2026-04-26 20:25 | 35.91630 | -106.55621 | 31949 ft | 370 kts | 246° |
| 2026-04-26 20:25 | 35.89592 | -106.61427 | 31963 ft | 370 kts | 246° |
| 2026-04-26 20:26 | 35.87546 | -106.67241 | 31997 ft | 370 kts | 246° |
| 2026-04-26 20:26 | 35.85503 | -106.73034 | 31995 ft | 369 kts | 246° |
| 2026-04-26 20:27 | 35.83445 | -106.78858 | 31990 ft | 370 kts | 246° |
| 2026-04-26 20:27 | 35.81397 | -106.84647 | 31995 ft | 369 kts | 246° |
| 2026-04-26 20:28 | 35.79347 | -106.90430 | 31989 ft | 369 kts | 245° |
| 2026-04-26 20:28 | 35.77293 | -106.96210 | 31991 ft | 370 kts | 246° |
| 2026-04-26 20:29 | 35.75252 | -107.01946 | 31983 ft | 369 kts | 245° |
| 2026-04-26 20:29 | 35.73190 | -107.07729 | 31978 ft | 369 kts | 246° |
| 2026-04-26 20:30 | 35.71135 | -107.13481 | 31976 ft | 369 kts | 246° |
| 2026-04-26 20:30 | 35.69063 | -107.19272 | 31975 ft | 369 kts | 246° |
| 2026-04-26 20:31 | 35.66998 | -107.25028 | 31969 ft | 369 kts | 246° |
| 2026-04-26 20:31 | 35.64925 | -107.30801 | 31966 ft | 369 kts | 246° |
| 2026-04-26 20:32 | 35.62861 | -107.36538 | 31967 ft | 370 kts | 246° |
| 2026-04-26 20:32 | 35.60782 | -107.42301 | 31955 ft | 369 kts | 246° |
| 2026-04-26 20:33 | 35.58698 | -107.48075 | 31952 ft | 370 kts | 246° |
| 2026-04-26 20:33 | 35.56617 | -107.53824 | 31951 ft | 368 kts | 246° |
| 2026-04-26 20:34 | 35.54539 | -107.59556 | 31960 ft | 370 kts | 246° |
| 2026-04-26 20:34 | 35.52436 | -107.65345 | 31969 ft | 369 kts | 245° |
| 2026-04-26 20:35 | 35.50360 | -107.71051 | 31985 ft | 370 kts | 245° |
| 2026-04-26 20:35 | 35.48273 | -107.76774 | 31985 ft | 368 kts | 246° |
| 2026-04-26 20:36 | 35.46186 | -107.82490 | 31980 ft | 368 kts | 246° |
| 2026-04-26 20:36 | 35.44097 | -107.88203 | 31992 ft | 368 kts | 245° |
| 2026-04-26 20:37 | 35.42005 | -107.93909 | 31981 ft | 367 kts | 245° |
| 2026-04-26 20:37 | 35.39925 | -107.99577 | 31996 ft | 367 kts | 246° |
| 2026-04-26 20:38 | 35.37825 | -108.05285 | 31985 ft | 366 kts | 246° |
| 2026-04-26 20:38 | 35.35726 | -108.10978 | 31987 ft | 368 kts | 246° |
| 2026-04-26 20:39 | 35.33624 | -108.16675 | 31996 ft | 367 kts | 246° |
| 2026-04-26 20:39 | 35.31533 | -108.22330 | 31995 ft | 365 kts | 246° |
| 2026-04-26 20:40 | 35.29428 | -108.28014 | 31992 ft | 367 kts | 246° |
| 2026-04-26 20:40 | 35.27675 | -108.32738 | 31990 ft | 366 kts | 245° |
| 2026-04-26 20:41 | 35.25211 | -108.39365 | 31981 ft | 365 kts | 246° |
| 2026-04-26 20:41 | 35.23115 | -108.44997 | 31978 ft | 367 kts | 246° |
| 2026-04-26 20:42 | 35.20985 | -108.50700 | 31974 ft | 365 kts | 246° |
| 2026-04-26 20:42 | 35.18894 | -108.56299 | 31976 ft | 365 kts | 245° |
| 2026-04-26 20:43 | 35.16765 | -108.61979 | 31970 ft | 366 kts | 246° |
| 2026-04-26 20:43 | 35.14653 | -108.67614 | 31990 ft | 366 kts | 245° |
| 2026-04-26 20:44 | 35.12544 | -108.73226 | 31981 ft | 365 kts | 245° |
| 2026-04-26 20:44 | 35.10419 | -108.78870 | 31976 ft | 365 kts | 245° |
| 2026-04-26 20:45 | 35.08305 | -108.84479 | 31971 ft | 366 kts | 245° |
| 2026-04-26 20:45 | 35.06173 | -108.90127 | 31955 ft | 366 kts | 245° |
| 2026-04-26 20:46 | 35.04038 | -108.95768 | 31955 ft | 366 kts | 245° |
| 2026-04-26 20:46 | 35.01915 | -109.01368 | 31951 ft | 366 kts | 244° |
| 2026-04-26 20:47 | 34.99786 | -109.06976 | 31956 ft | 365 kts | 245° |
| 2026-04-26 20:47 | 34.97650 | -109.12592 | 31951 ft | 364 kts | 245° |
| 2026-04-26 20:48 | 34.95563 | -109.18195 | 31956 ft | 366 kts | 246° |
| 2026-04-26 20:48 | 34.93508 | -109.23850 | 31955 ft | 364 kts | 245° |
| 2026-04-26 20:49 | 34.91445 | -109.29503 | 31966 ft | 366 kts | 246° |
| 2026-04-26 20:49 | 34.89374 | -109.35178 | 31972 ft | 366 kts | 246° |
| 2026-04-26 20:50 | 34.87299 | -109.40853 | 31965 ft | 367 kts | 246° |
| 2026-04-26 20:50 | 34.85234 | -109.46491 | 31961 ft | 365 kts | 246° |
| 2026-04-26 20:51 | 34.83158 | -109.52145 | 31963 ft | 367 kts | 246° |
| 2026-04-26 20:51 | 34.81125 | -109.57672 | 31963 ft | 366 kts | 246° |
| 2026-04-26 20:52 | 34.79041 | -109.63332 | 31947 ft | 367 kts | 246° |
| 2026-04-26 20:52 | 34.76960 | -109.68969 | 31967 ft | 365 kts | 246° |
| 2026-04-26 20:53 | 34.74873 | -109.74613 | 31971 ft | 366 kts | 245° |
| 2026-04-26 20:53 | 34.72786 | -109.80241 | 31965 ft | 365 kts | 245° |
| 2026-04-26 20:54 | 34.70704 | -109.85852 | 31975 ft | 364 kts | 245° |
| 2026-04-26 20:54 | 34.68624 | -109.91447 | 31963 ft | 363 kts | 246° |
| 2026-04-26 20:55 | 34.66528 | -109.97083 | 31967 ft | 365 kts | 246° |
| 2026-04-26 20:55 | 34.64448 | -110.02661 | 31978 ft | 365 kts | 246° |
| 2026-04-26 20:56 | 34.62347 | -110.08290 | 31957 ft | 365 kts | 245° |
| 2026-04-26 20:56 | 34.60250 | -110.13895 | 31961 ft | 366 kts | 245° |
| 2026-04-26 20:57 | 34.58138 | -110.19533 | 31939 ft | 369 kts | 245° |
| 2026-04-26 20:57 | 34.57071 | -110.22374 | 31431 ft | 371 kts | 245° |
| 2026-04-26 20:57 | 34.56009 | -110.25201 | 30897 ft | 361 kts | 245° |
| 2026-04-26 20:57 | 34.54995 | -110.27902 | 30444 ft | 351 kts | 245° |
| 2026-04-26 20:58 | 34.53989 | -110.30576 | 30074 ft | 348 kts | 245° |
| 2026-04-26 20:58 | 34.52974 | -110.33273 | 29649 ft | 360 kts | 245° |
| 2026-04-26 20:58 | 34.51927 | -110.36054 | 29174 ft | 361 kts | 245° |
| 2026-04-26 20:58 | 34.50901 | -110.38774 | 29166 ft | 342 kts | 245° |
| 2026-04-26 20:59 | 34.49947 | -110.41304 | 29116 ft | 325 kts | 245° |
| 2026-04-26 20:59 | 34.49015 | -110.43769 | 28394 ft | 321 kts | 246° |
| 2026-04-26 20:59 | 34.48106 | -110.46178 | 28003 ft | 309 kts | 246° |
| 2026-04-26 20:59 | 34.47211 | -110.48541 | 27640 ft | 304 kts | 245° |
| 2026-04-26 21:00 | 34.46328 | -110.50875 | 27301 ft | 309 kts | 246° |
| 2026-04-26 21:00 | 34.45426 | -110.53254 | 26955 ft | 318 kts | 246° |
| 2026-04-26 21:00 | 34.44492 | -110.55716 | 26581 ft | 317 kts | 246° |
| 2026-04-26 21:00 | 34.43582 | -110.58116 | 26220 ft | 313 kts | 246° |
| 2026-04-26 21:01 | 34.42677 | -110.60500 | 25853 ft | 311 kts | 245° |
| 2026-04-26 21:01 | 34.41777 | -110.62865 | 25485 ft | 312 kts | 246° |
| 2026-04-26 21:01 | 34.40865 | -110.65265 | 25119 ft | 313 kts | 245° |
| 2026-04-26 21:01 | 34.39965 | -110.67631 | 24793 ft | 311 kts | 245° |
| 2026-04-26 21:02 | 34.39062 | -110.69999 | 24435 ft | 308 kts | 245° |
| 2026-04-26 21:02 | 34.38160 | -110.72364 | 24085 ft | 310 kts | 245° |
| 2026-04-26 21:02 | 34.37259 | -110.74728 | 23721 ft | 312 kts | 245° |
| 2026-04-26 21:02 | 34.36348 | -110.77113 | 23412 ft | 308 kts | 245° |
| 2026-04-26 21:03 | 34.35361 | -110.79390 | 22919 ft | 311 kts | 236° |
| 2026-04-26 21:03 | 34.33925 | -110.81383 | 22527 ft | 308 kts | 230° |
| 2026-04-26 21:03 | 34.32490 | -110.83258 | 22220 ft | 304 kts | 231° |
| 2026-04-26 21:03 | 34.31044 | -110.85154 | 21903 ft | 304 kts | 231° |
| 2026-04-26 21:04 | 34.29605 | -110.87030 | 21598 ft | 306 kts | 231° |
| 2026-04-26 21:04 | 34.28144 | -110.88929 | 21270 ft | 308 kts | 230° |
| 2026-04-26 21:04 | 34.26698 | -110.90802 | 20926 ft | 306 kts | 230° |
| 2026-04-26 21:04 | 34.25245 | -110.92683 | 20587 ft | 303 kts | 230° |
| 2026-04-26 21:05 | 34.23811 | -110.94537 | 20266 ft | 302 kts | 231° |
| 2026-04-26 21:05 | 34.22384 | -110.96381 | 19958 ft | 300 kts | 230° |
| 2026-04-26 21:05 | 34.20946 | -110.98238 | 19644 ft | 302 kts | 230° |
| 2026-04-26 21:05 | 34.19506 | -111.00096 | 19302 ft | 303 kts | 230° |
| 2026-04-26 21:06 | 34.18058 | -111.01962 | 18956 ft | 304 kts | 231° |
| 2026-04-26 21:06 | 34.16631 | -111.03801 | 18584 ft | 301 kts | 230° |
| 2026-04-26 21:06 | 34.15207 | -111.05636 | 18307 ft | 297 kts | 230° |
| 2026-04-26 21:06 | 34.13792 | -111.07456 | 18092 ft | 293 kts | 230° |
| 2026-04-26 21:07 | 34.12411 | -111.09231 | 17988 ft | 287 kts | 230° |
| 2026-04-26 21:07 | 34.11033 | -111.11005 | 17597 ft | 291 kts | 230° |
| 2026-04-26 21:07 | 34.09651 | -111.12781 | 17206 ft | 289 kts | 230° |
| 2026-04-26 21:07 | 34.08295 | -111.14523 | 16835 ft | 284 kts | 230° |
| 2026-04-26 21:08 | 34.06950 | -111.16249 | 16493 ft | 281 kts | 230° |
| 2026-04-26 21:08 | 34.05604 | -111.17977 | 16149 ft | 281 kts | 230° |
| 2026-04-26 21:08 | 34.04276 | -111.19680 | 15817 ft | 283 kts | 230° |
| 2026-04-26 21:08 | 34.02914 | -111.21428 | 15463 ft | 284 kts | 230° |
| 2026-04-26 21:09 | 34.01571 | -111.23150 | 15097 ft | 282 kts | 229° |
| 2026-04-26 21:09 | 34.00224 | -111.24873 | 14767 ft | 280 kts | 230° |
| 2026-04-26 21:09 | 33.98893 | -111.26578 | 14463 ft | 281 kts | 229° |
| 2026-04-26 21:09 | 33.97561 | -111.28284 | 14124 ft | 281 kts | 229° |
| 2026-04-26 21:10 | 33.96211 | -111.30009 | 13794 ft | 282 kts | 229° |
| 2026-04-26 21:10 | 33.94865 | -111.31728 | 13461 ft | 282 kts | 229° |
| 2026-04-26 21:10 | 33.93536 | -111.33427 | 13097 ft | 280 kts | 229° |
| 2026-04-26 21:10 | 33.92194 | -111.35140 | 12776 ft | 277 kts | 229° |
| 2026-04-26 21:11 | 33.90879 | -111.36820 | 12498 ft | 277 kts | 229° |
| 2026-04-26 21:11 | 33.89543 | -111.38522 | 12151 ft | 281 kts | 229° |
| 2026-04-26 21:11 | 33.88200 | -111.40196 | 11700 ft | 274 kts | 223° |
| 2026-04-26 21:11 | 33.86680 | -111.41577 | 11341 ft | 265 kts | 218° |
| 2026-04-26 21:12 | 33.85210 | -111.42847 | 11159 ft | 261 kts | 219° |
| 2026-04-26 21:12 | 33.83710 | -111.44153 | 10943 ft | 269 kts | 218° |
| 2026-04-26 21:12 | 33.82187 | -111.45470 | 10647 ft | 271 kts | 218° |
| 2026-04-26 21:12 | 33.80647 | -111.46796 | 10391 ft | 266 kts | 218° |
| 2026-04-26 21:13 | 33.79146 | -111.48086 | 9951 ft | 263 kts | 218° |
| 2026-04-26 21:13 | 33.77687 | -111.49342 | 9683 ft | 250 kts | 218° |
| 2026-04-26 21:13 | 33.76293 | -111.50541 | 9539 ft | 246 kts | 217° |
| 2026-04-26 21:13 | 33.74870 | -111.51765 | 9424 ft | 255 kts | 217° |
| 2026-04-26 21:14 | 33.73411 | -111.53020 | 9198 ft | 257 kts | 218° |
| 2026-04-26 21:14 | 33.71966 | -111.54259 | 8949 ft | 245 kts | 218° |
| 2026-04-26 21:14 | 33.70618 | -111.55415 | 8854 ft | 232 kts | 218° |
| 2026-04-26 21:14 | 33.69355 | -111.56496 | 8835 ft | 214 kts | 218° |
| 2026-04-26 21:15 | 33.68171 | -111.57513 | 8871 ft | 208 kts | 218° |
| 2026-04-26 21:15 | 33.66948 | -111.58564 | 8816 ft | 221 kts | 218° |
| 2026-04-26 21:15 | 33.65699 | -111.59636 | 8715 ft | 221 kts | 218° |
| 2026-04-26 21:15 | 33.64437 | -111.60715 | 8499 ft | 222 kts | 218° |
| 2026-04-26 21:16 | 33.63171 | -111.61777 | 8219 ft | 219 kts | 217° |
| 2026-04-26 21:16 | 33.61937 | -111.62810 | 7998 ft | 217 kts | 218° |
| 2026-04-26 21:16 | 33.60693 | -111.63852 | 7768 ft | 217 kts | 217° |
| 2026-04-26 21:16 | 33.59447 | -111.64895 | 7524 ft | 217 kts | 218° |
| 2026-04-26 21:17 | 33.58205 | -111.65933 | 7271 ft | 216 kts | 217° |
| 2026-04-26 21:17 | 33.56961 | -111.66974 | 7022 ft | 217 kts | 217° |
| 2026-04-26 21:17 | 33.55722 | -111.68011 | 6759 ft | 216 kts | 217° |
| 2026-04-26 21:17 | 33.54490 | -111.69051 | 6503 ft | 214 kts | 217° |
| 2026-04-26 21:18 | 33.53272 | -111.70081 | 6260 ft | 215 kts | 217° |
| 2026-04-26 21:18 | 33.52056 | -111.71108 | 6011 ft | 215 kts | 217° |
| 2026-04-26 21:18 | 33.50826 | -111.72146 | 5754 ft | 214 kts | 217° |
| 2026-04-26 21:18 | 33.49620 | -111.73162 | 5506 ft | 213 kts | 217° |
| 2026-04-26 21:19 | 33.48392 | -111.74197 | 5252 ft | 213 kts | 217° |
| 2026-04-26 21:19 | 33.47168 | -111.75228 | 4988 ft | 214 kts | 217° |
| 2026-04-26 21:19 | 33.45954 | -111.76251 | 4737 ft | 212 kts | 217° |
| 2026-04-26 21:19 | 33.44782 | -111.77235 | 4567 ft | 199 kts | 217° |
| 2026-04-26 21:20 | 33.43685 | -111.78225 | 4342 ft | 195 kts | 226° |
| 2026-04-26 21:20 | 33.42971 | -111.79529 | 4327 ft | 179 kts | 252° |
| 2026-04-26 21:20 | 33.42832 | -111.80989 | 4259 ft | 180 kts | 268° |
| 2026-04-26 21:20 | 33.42884 | -111.82508 | 4092 ft | 180 kts | 272° |
| 2026-04-26 21:21 | 33.42989 | -111.83970 | 3928 ft | 177 kts | 272° |
| 2026-04-26 21:21 | 33.43070 | -111.85430 | 3620 ft | 171 kts | 270° |
| 2026-04-26 21:21 | 33.43122 | -111.86839 | 3236 ft | 170 kts | 270° |
| 2026-04-26 21:21 | 33.43170 | -111.88213 | 2942 ft | 161 kts | 269° |
| 2026-04-26 21:22 | 33.43190 | -111.89552 | 2610 ft | 156 kts | 268° |
| 2026-04-26 21:22 | 33.43184 | -111.90786 | 2328 ft | 141 kts | 267° |
| 2026-04-26 21:22 | 33.43191 | -111.91908 | 2085 ft | 134 kts | 268° |
| 2026-04-26 21:23 | 33.43189 | -111.94208 | 1941 ft | 140 kts | 263° |
| 2026-04-26 21:23 | 33.43094 | -111.95390 | 1833 ft | 141 kts | 263° |
| 2026-04-26 21:23 | 33.43098 | -111.96550 | 1660 ft | 135 kts | 268° |
| 2026-04-26 21:23 | 33.43121 | -111.97643 | 1424 ft | 132 kts | 267° |
| 2026-04-26 21:24 | 33.43118 | -111.98718 | 1258 ft | 128 kts | 264° |
| 2026-04-26 21:24 | 33.43113 | -111.99804 | 1157 ft | 131 kts | 266° |
| 2026-04-26 21:24 | 33.43105 | -112.00872 | 1132 ft | 125 kts | 270° |
| 2026-04-26 21:24 | 33.43102 | -112.01516 | 1128 ft | 19 kts | 252° |
| 2026-04-26 21:25 | 33.43044 | -112.01588 | 1126 ft | 7 kts | 218° |
| 2026-04-26 21:25 | 33.42996 | -112.01634 | 1126 ft | 13 kts | 219° |
| 2026-04-26 21:25 | 33.42945 | -112.01659 | 1126 ft | 9 kts | 182° |
| 2026-04-26 21:25 | 33.42868 | -112.01658 | 1126 ft | 6 kts | 180° |
| 2026-04-26 21:26 | 33.42815 | -112.01659 | 1126 ft | 11 kts | 186° |
| 2026-04-26 21:26 | 33.42759 | -112.01721 | 1124 ft | 8 kts | 216° |
| 2026-04-26 21:26 | 33.42702 | -112.01739 | 1123 ft | 11 kts | 181° |
| 2026-04-26 21:26 | 33.42646 | -112.01741 | 1123 ft | 5 kts | 181° |
| 2026-04-26 21:27 | 33.42621 | -112.01723 | 1123 ft | 5 kts | 114° |
| 2026-04-26 21:27 | 33.42617 | -112.01688 | 1123 ft | 3 kts | 92° |